createdAt,value
2019-04-07T00:00:09.116Z,99.10
2019-04-07T00:02:38.456Z,88.82
2019-04-07T00:05:13.063Z,88.10
2019-04-07T00:07:38.007Z,89.87
2019-04-07T00:10:10.080Z,90.45
2019-04-07T00:12:38.783Z,85.90
2019-04-07T00:15:08.279Z,88.05
2019-04-07T00:17:37.537Z,86.22
2019-04-07T00:20:07.299Z,85.32
2019-04-07T00:22:36.051Z,90.38
2019-04-07T00:25:05.724Z,86.85
2019-04-07T00:27:34.306Z,98.78
2019-04-07T00:30:03.044Z,91.70
2019-04-07T00:32:31.663Z,96.67
2019-04-07T00:35:00.230Z,91.72
2019-04-07T00:37:29.485Z,88.50
2019-04-07T00:39:58.883Z,93.40
2019-04-07T00:42:27.668Z,89.55
2019-04-07T00:44:56.258Z,93.97
2019-04-07T00:47:24.973Z,90.42
2019-04-07T00:49:53.615Z,90.25
2019-04-07T00:52:23.891Z,95.75
2019-04-07T00:54:52.559Z,98.37
2019-04-07T00:57:21.257Z,94.87
2019-04-07T00:59:50.628Z,98.55
2019-04-07T01:02:19.488Z,97.88
2019-04-07T01:04:48.033Z,96.15
2019-04-07T01:07:16.624Z,97.62
2019-04-07T01:09:45.359Z,95.92
2019-04-07T01:12:13.971Z,95.05
2019-04-07T01:14:43.323Z,92.97
2019-04-07T01:17:12.550Z,92.15
2019-04-07T01:19:41.252Z,89.95
2019-04-07T01:22:10.000Z,90.80
2019-04-07T01:24:38.612Z,94.83
2019-04-07T01:27:07.210Z,96.02
2019-04-07T01:29:36.410Z,95.30
2019-04-07T01:32:06.005Z,93.22
2019-04-07T01:34:35.021Z,91.05
2019-04-07T01:37:03.696Z,95.83
2019-04-07T01:39:32.342Z,94.77
2019-04-07T01:42:11.678Z,100.07
2019-04-07T01:44:58.494Z,95.17
2019-04-07T01:47:34.442Z,87.40
2019-04-07T01:50:23.202Z,95.42
2019-04-07T01:52:59.363Z,95.92
2019-04-07T01:55:29.915Z,98.60
2019-04-07T01:58:00.710Z,96.55
2019-04-07T02:00:33.819Z,100.58
2019-04-07T02:03:04.807Z,90.60
2019-04-07T02:05:58.645Z,90.77
2019-04-07T02:08:24.080Z,97.67
2019-04-07T02:11:13.619Z,90.65
2019-04-07T02:13:50.446Z,96.57
2019-04-07T02:16:20.887Z,87.85
2019-04-07T02:18:54.228Z,103.17
2019-04-07T02:21:25.001Z,87.67
2019-04-07T02:24:04.840Z,92.12
2019-04-07T02:26:37.975Z,82.35
2019-04-07T02:29:24.753Z,88.67
2019-04-07T02:31:58.513Z,91.82
2019-04-07T02:34:38.072Z,85.03
2019-04-07T02:37:11.921Z,80.22
2019-04-07T02:39:42.390Z,87.25
2019-04-07T02:42:15.554Z,85.32
2019-04-07T02:44:46.532Z,85.40
2019-04-07T02:47:23.037Z,91.35
2019-04-07T02:49:54.074Z,89.85
2019-04-07T02:52:39.137Z,89.92
2019-04-07T02:55:28.003Z,82.20
2019-04-07T02:58:01.556Z,90.22
2019-04-07T03:00:32.158Z,94.45
2019-04-07T03:03:21.167Z,84.17
2019-04-07T03:06:00.366Z,81.22
2019-04-07T03:08:30.679Z,84.15
2019-04-07T03:11:09.719Z,86.85
2019-04-07T03:13:52.534Z,80.92
2019-04-07T03:16:31.987Z,86.42
2019-04-07T03:19:17.572Z,83.80
2019-04-07T03:22:03.814Z,88.50
2019-04-07T03:24:52.891Z,89.05
2019-04-07T03:27:24.033Z,84.87
2019-04-07T03:29:55.333Z,95.95
2019-04-07T03:32:37.819Z,84.92
2019-04-07T03:35:16.081Z,83.47
2019-04-07T03:37:52.831Z,85.20
2019-04-07T03:40:39.372Z,76.90
2019-04-07T03:43:13.107Z,82.37
2019-04-07T03:45:46.694Z,85.75
2019-04-07T03:48:19.698Z,90.55
2019-04-07T03:51:06.759Z,85.28
2019-04-07T03:53:43.180Z,87.75
2019-04-07T03:56:13.534Z,89.92
2019-04-07T03:58:44.182Z,83.42
2019-04-07T04:01:29.935Z,92.82
2019-04-07T04:04:15.733Z,85.10
2019-04-07T04:06:55.168Z,99.50
2019-04-07T04:09:44.074Z,98.40
2019-04-07T04:12:15.039Z,100.40
2019-04-07T04:14:57.148Z,103.78
2019-04-07T04:17:25.768Z,109.37
2019-04-07T04:19:55.123Z,93.58
2019-04-07T04:22:23.920Z,110.45
2019-04-07T04:24:53.484Z,97.70
2019-04-07T04:27:22.358Z,96.28
2019-04-07T04:29:53.038Z,99.85
2019-04-07T04:32:21.945Z,105.45
2019-04-07T04:34:51.598Z,98.33
2019-04-07T04:37:34.603Z,104.27
2019-04-07T04:39:51.140Z,100.90
2019-04-07T04:42:20.402Z,106.00
2019-04-07T04:44:49.182Z,105.07
2019-04-07T04:47:18.835Z,105.63
2019-04-07T04:49:48.353Z,105.85
2019-04-07T04:52:18.033Z,109.90
2019-04-07T04:54:47.496Z,103.95
2019-04-07T04:57:16.243Z,104.92
2019-04-07T04:59:44.854Z,102.75
2019-04-07T05:02:13.584Z,100.90
2019-04-07T05:04:42.263Z,94.00
2019-04-07T05:07:11.284Z,98.15
2019-04-07T05:09:46.625Z,99.42
2019-04-07T05:12:10.321Z,100.78
2019-04-07T05:14:39.163Z,110.15
2019-04-07T05:17:07.830Z,114.77
2019-04-07T05:19:37.186Z,110.05
2019-04-07T05:22:06.065Z,110.30
2019-04-07T05:24:35.155Z,106.52
2019-04-07T05:27:03.825Z,104.10
2019-04-07T05:29:32.524Z,105.70
2019-04-07T05:32:01.543Z,103.45
2019-04-07T05:34:50.443Z,103.02
2019-04-07T05:37:22.006Z,101.42
2019-04-07T05:39:50.704Z,100.12
2019-04-07T05:42:20.003Z,100.02
2019-04-07T05:44:48.715Z,92.50
2019-04-07T05:47:17.340Z,95.07
2019-04-07T05:49:46.069Z,91.95
2019-04-07T05:52:14.880Z,92.40
2019-04-07T05:54:43.870Z,88.00
2019-04-07T05:57:13.414Z,92.25
2019-04-07T05:59:43.479Z,87.55
2019-04-07T06:02:12.206Z,88.75
2019-04-07T06:04:41.537Z,87.92
2019-04-07T06:07:10.305Z,79.82
2019-04-07T06:09:38.955Z,81.25
2019-04-07T06:12:09.725Z,82.00
2019-04-07T06:14:38.050Z,81.30
2019-04-07T06:17:07.335Z,74.12
2019-04-07T06:19:40.001Z,75.50
2019-04-07T06:22:07.575Z,74.45
2019-04-07T06:24:36.628Z,72.67
2019-04-07T06:27:05.561Z,72.17
2019-04-07T06:29:34.469Z,77.58
2019-04-07T06:32:05.135Z,72.20
2019-04-07T06:34:33.825Z,69.03
2019-04-07T06:37:02.528Z,64.58
2019-04-07T06:39:32.213Z,64.92
2019-04-07T06:42:02.382Z,65.50
2019-04-07T06:44:31.104Z,63.17
2019-04-07T06:47:17.733Z,66.33
2019-04-07T06:50:00.708Z,59.60
2019-04-07T06:52:39.817Z,59.60
2019-04-07T06:55:08.923Z,61.63
2019-04-07T06:57:57.234Z,58.73
2019-04-07T07:00:30.099Z,58.28
2019-04-07T07:03:16.619Z,57.20
2019-04-07T07:05:53.631Z,55.17
2019-04-07T07:08:26.985Z,51.13
2019-04-07T07:10:59.938Z,53.20
2019-04-07T07:13:42.987Z,53.85
2019-04-07T07:16:15.771Z,51.77
2019-04-07T07:18:55.725Z,50.00
2019-04-07T07:21:31.501Z,43.83
2019-04-07T07:24:00.173Z,48.13
2019-04-07T07:26:32.929Z,49.33
2019-04-07T07:28:59.229Z,48.55
2019-04-07T07:31:28.310Z,45.52
2019-04-07T07:33:58.232Z,45.45
2019-04-07T07:36:27.419Z,44.77
2019-04-07T07:39:01.218Z,45.30
2019-04-07T07:41:26.587Z,45.50
2019-04-07T07:44:00.386Z,41.28
2019-04-07T07:46:25.533Z,44.00
2019-04-07T07:48:57.301Z,42.38
2019-04-07T07:51:24.800Z,44.83
2019-04-07T07:53:56.591Z,41.75
2019-04-07T07:56:24.330Z,44.08
2019-04-07T07:58:53.081Z,37.63
2019-04-07T08:01:21.674Z,40.55
2019-04-07T08:03:53.020Z,43.05
2019-04-07T08:06:20.626Z,39.78
2019-04-07T08:08:49.179Z,39.83
2019-04-07T08:11:18.690Z,39.58
2019-04-07T08:13:47.725Z,39.80
2019-04-07T08:16:16.457Z,38.65
2019-04-07T08:18:46.493Z,40.98
2019-04-07T08:21:17.635Z,40.17
2019-04-07T08:23:45.979Z,38.05
2019-04-07T08:26:14.729Z,40.23
2019-04-07T08:28:43.921Z,37.42
2019-04-07T08:31:13.259Z,37.00
2019-04-07T08:33:42.163Z,38.65
2019-04-07T08:36:12.950Z,37.45
2019-04-07T08:38:41.219Z,35.33
2019-04-07T08:41:11.560Z,40.38
2019-04-07T08:43:40.873Z,37.13
2019-04-07T08:46:09.941Z,39.25
2019-04-07T08:48:38.814Z,34.33
2019-04-07T08:51:08.483Z,32.25
2019-04-07T08:53:37.789Z,34.95
2019-04-07T08:56:08.718Z,33.53
2019-04-07T08:58:38.897Z,32.15
2019-04-07T09:01:07.412Z,34.27
2019-04-07T09:03:36.123Z,35.58
2019-04-07T09:06:04.871Z,30.68
2019-04-07T09:08:36.775Z,33.80
2019-04-07T09:11:08.972Z,38.78
2019-04-07T09:13:38.451Z,31.33
2019-04-07T09:16:23.787Z,32.85
2019-04-07T09:19:01.867Z,31.57
2019-04-07T09:21:41.148Z,32.28
2019-04-07T09:24:10.101Z,33.30
2019-04-07T09:26:57.767Z,29.92
2019-04-07T09:29:31.342Z,31.65
2019-04-07T09:32:17.860Z,34.43
2019-04-07T09:34:53.078Z,31.75
2019-04-07T09:37:38.813Z,28.17
2019-04-07T09:40:20.153Z,29.50
2019-04-07T09:42:57.594Z,31.05
2019-04-07T09:45:41.594Z,30.05
2019-04-07T09:48:24.011Z,24.45
2019-04-07T09:51:11.189Z,34.03
2019-04-07T09:54:00.334Z,29.05
2019-04-07T09:56:32.868Z,32.33
2019-04-07T09:59:08.894Z,28.12
2019-04-07T10:01:59.470Z,30.57
2019-04-07T10:04:30.515Z,26.62
2019-04-07T10:07:18.322Z,30.68
2019-04-07T10:10:12.404Z,27.75
2019-04-07T10:12:48.695Z,24.15
2019-04-07T10:15:25.596Z,23.75
2019-04-07T10:17:56.521Z,28.38
2019-04-07T10:20:43.109Z,25.40
2019-04-07T10:23:14.119Z,23.42
2019-04-07T10:25:57.351Z,26.45
2019-04-07T10:28:40.085Z,25.35
2019-04-07T10:31:18.448Z,24.87
2019-04-07T10:33:49.434Z,26.10
2019-04-07T10:36:22.865Z,26.45
2019-04-07T10:38:54.050Z,27.45
2019-04-07T10:41:41.364Z,27.05
2019-04-07T10:44:11.613Z,28.73
2019-04-07T10:46:50.737Z,29.63
2019-04-07T10:49:34.040Z,25.77
2019-04-07T10:52:04.557Z,29.05
2019-04-07T10:54:40.542Z,24.02
2019-04-07T10:57:13.288Z,25.37
2019-04-07T10:59:46.657Z,28.00
2019-04-07T11:02:19.963Z,26.93
2019-04-07T11:04:50.869Z,21.95
2019-04-07T11:07:43.904Z,25.12
2019-04-07T11:10:34.116Z,22.35
2019-04-07T11:13:01.807Z,22.58
2019-04-07T11:15:48.798Z,22.48
2019-04-07T11:18:34.773Z,24.05
2019-04-07T11:21:07.929Z,25.90
2019-04-07T11:23:38.197Z,24.77
2019-04-07T11:26:19.453Z,21.82
2019-04-07T11:28:55.576Z,23.22
2019-04-07T11:31:35.234Z,26.30
2019-04-07T11:34:17.830Z,18.32
2019-04-07T11:36:57.154Z,22.80
2019-04-07T11:39:30.726Z,18.92
2019-04-07T11:42:17.436Z,18.23
2019-04-07T11:45:03.283Z,16.17
2019-04-07T11:47:36.269Z,17.12
2019-04-07T11:50:15.110Z,13.28
2019-04-07T11:52:46.203Z,14.75
2019-04-07T11:55:19.518Z,10.35
2019-04-07T11:58:13.519Z,13.88
2019-04-07T12:00:42.630Z,14.18
2019-04-07T12:03:24.764Z,12.15
2019-04-07T12:06:03.671Z,15.83
2019-04-07T12:08:36.280Z,13.88
2019-04-07T12:11:06.578Z,12.75
2019-04-07T12:13:37.434Z,14.55
2019-04-07T12:16:11.862Z,11.28
2019-04-07T12:18:52.451Z,13.20
2019-04-07T12:21:26.732Z,10.32
2019-04-07T12:24:09.770Z,11.48
2019-04-07T12:26:59.881Z,11.40
2019-04-07T12:29:38.613Z,10.80
2019-04-07T12:32:14.963Z,12.23
2019-04-07T12:34:48.888Z,13.05
2019-04-07T12:37:20.626Z,12.07
2019-04-07T12:39:52.131Z,11.93
2019-04-07T12:42:25.462Z,11.15
2019-04-07T12:44:59.842Z,13.25
2019-04-07T12:47:36.591Z,10.65
2019-04-07T12:50:21.859Z,12.70
2019-04-07T12:58:21.828Z,13.90
2019-04-07T13:00:58.309Z,14.98
2019-04-07T13:03:24.369Z,11.60
2019-04-07T13:05:57.508Z,11.68
2019-04-07T13:08:28.534Z,12.03
2019-04-07T13:11:27.184Z,15.93
2019-04-07T13:13:50.569Z,14.83
2019-04-07T13:16:39.188Z,14.03
2019-04-07T13:19:15.817Z,13.30
2019-04-07T13:21:47.884Z,13.05
2019-04-07T13:24:33.081Z,14.50
2019-04-07T13:27:04.105Z,14.85
2019-04-07T13:29:43.412Z,14.00
2019-04-07T13:32:37.085Z,14.38
2019-04-07T13:35:00.283Z,15.58
2019-04-07T13:37:36.732Z,14.43
2019-04-07T13:40:14.325Z,14.28
2019-04-07T13:42:57.452Z,16.32
2019-04-07T13:45:28.100Z,16.77
2019-04-07T13:48:01.449Z,13.98
2019-04-07T13:50:40.678Z,16.05
2019-04-07T13:53:16.559Z,14.33
2019-04-07T13:56:06.238Z,15.93
2019-04-07T13:58:52.788Z,15.45
2019-04-07T14:01:23.156Z,13.83
2019-04-07T14:04:10.520Z,14.38
2019-04-07T14:06:44.799Z,15.53
2019-04-07T14:09:31.481Z,15.18
2019-04-07T14:12:06.928Z,15.40
2019-04-07T14:14:32.660Z,13.30
2019-04-07T14:17:08.976Z,13.50
2019-04-07T14:19:52.031Z,12.45
2019-04-07T14:22:26.609Z,12.95
2019-04-07T14:25:13.160Z,16.70
2019-04-07T14:27:43.408Z,12.37
2019-04-07T14:30:20.242Z,16.35
2019-04-07T14:32:56.790Z,12.03
2019-04-07T14:35:44.231Z,14.93
2019-04-07T14:38:30.111Z,12.85
2019-04-07T14:41:01.098Z,11.83
2019-04-07T14:43:48.573Z,14.05
2019-04-07T14:46:24.684Z,14.58
2019-04-07T14:49:15.569Z,13.03
2019-04-07T14:51:47.185Z,14.40
2019-04-07T14:54:33.379Z,11.08
2019-04-07T14:57:12.867Z,12.07
2019-04-07T14:59:43.838Z,12.23
2019-04-07T15:02:13.860Z,11.25
2019-04-07T15:04:59.641Z,12.68
2019-04-07T15:07:38.921Z,12.28
2019-04-07T15:10:09.807Z,15.38
2019-04-07T15:12:40.347Z,13.78
2019-04-07T15:15:11.765Z,16.02
2019-04-07T15:17:40.523Z,10.78
2019-04-07T15:20:11.720Z,15.58
2019-04-07T15:22:40.998Z,14.05
2019-04-07T15:25:10.505Z,12.70
2019-04-07T15:27:40.042Z,14.13
2019-04-07T15:30:15.285Z,13.13
2019-04-07T15:32:41.637Z,14.38
2019-04-07T15:35:12.446Z,11.78
2019-04-07T15:37:41.047Z,15.03
2019-04-07T15:40:11.157Z,13.85
2019-04-07T15:42:46.022Z,15.23
2019-04-07T15:45:12.256Z,14.53
2019-04-07T15:47:41.322Z,13.20
2019-04-07T15:50:10.266Z,14.65
2019-04-07T15:52:42.178Z,12.47
2019-04-07T15:55:11.544Z,16.32
2019-04-07T15:57:40.745Z,11.40
2019-04-07T16:00:10.055Z,13.62
2019-04-07T16:02:42.209Z,13.08
2019-04-07T16:05:10.450Z,13.53
2019-04-07T16:07:39.272Z,14.65
2019-04-07T16:10:08.329Z,13.93
2019-04-07T16:12:45.062Z,15.03
2019-04-07T16:15:09.697Z,14.10
2019-04-07T16:17:38.479Z,20.27
2019-04-07T16:20:19.832Z,19.05
2019-04-07T16:22:40.188Z,13.95
2019-04-07T16:25:11.140Z,14.68
2019-04-07T16:27:47.792Z,17.57
2019-04-07T16:30:19.016Z,15.98
2019-04-07T16:32:48.034Z,13.20
2019-04-07T16:35:17.037Z,13.60
2019-04-07T16:37:45.819Z,13.80
2019-04-07T16:40:15.101Z,14.63
2019-04-07T16:42:54.542Z,16.55
2019-04-07T16:45:16.676Z,18.05
2019-04-07T16:47:45.458Z,13.08
2019-04-07T16:50:18.160Z,13.60
2019-04-07T16:52:44.804Z,15.80
2019-04-07T16:55:37.493Z,12.93
2019-04-07T16:58:07.270Z,16.32
2019-04-07T17:00:36.025Z,15.90
2019-04-07T17:03:07.857Z,19.05
2019-04-07T17:05:37.477Z,14.33
2019-04-07T17:08:07.349Z,17.75
2019-04-07T17:10:36.995Z,17.48
2019-04-07T17:13:17.769Z,17.20
2019-04-07T17:15:39.541Z,17.77
2019-04-07T17:18:09.528Z,16.00
2019-04-07T17:20:38.675Z,19.73
2019-04-07T17:23:07.436Z,16.17
2019-04-07T17:25:36.231Z,14.60
2019-04-07T17:28:06.386Z,17.77
2019-04-07T17:30:38.007Z,15.20
2019-04-07T17:33:15.870Z,15.20
2019-04-07T17:35:45.219Z,17.87
2019-04-07T17:38:16.048Z,19.85
2019-04-07T17:40:51.850Z,17.98
2019-04-07T17:43:36.054Z,18.10
2019-04-07T17:46:03.354Z,14.70
2019-04-07T17:48:55.306Z,16.30
2019-04-07T17:51:22.769Z,18.17
2019-04-07T17:53:55.890Z,15.50
2019-04-07T17:56:29.831Z,16.57
2019-04-07T17:59:04.559Z,17.73
2019-04-07T18:01:41.021Z,16.27
2019-04-07T18:04:30.629Z,17.10
2019-04-07T18:07:03.615Z,18.25
2019-04-07T18:09:33.096Z,15.15
2019-04-07T18:12:18.632Z,16.62
2019-04-07T18:14:49.336Z,13.88
2019-04-07T18:17:35.537Z,18.35
2019-04-07T18:20:16.072Z,17.20
2019-04-07T18:22:46.450Z,17.20
2019-04-07T18:25:17.313Z,19.07
2019-04-07T18:28:19.079Z,19.70
2019-04-07T18:31:05.367Z,21.07
2019-04-07T18:33:36.843Z,22.10
2019-04-07T18:36:19.193Z,28.47
2019-04-07T18:39:07.694Z,23.10
2019-04-07T18:41:50.509Z,24.57
2019-04-07T18:44:38.619Z,23.65
2019-04-07T18:47:05.013Z,26.30
2019-04-07T18:49:51.753Z,29.12
2019-04-07T18:52:23.035Z,26.95
2019-04-07T18:55:11.054Z,25.82
2019-04-07T18:57:45.921Z,27.42
2019-04-07T19:00:16.989Z,29.55
2019-04-07T19:02:48.178Z,25.40
2019-04-07T19:05:32.651Z,29.10
2019-04-07T19:08:20.259Z,33.58
2019-04-07T19:11:12.443Z,30.45
2019-04-07T19:14:14.305Z,31.20
2019-04-07T19:16:34.118Z,31.15
2019-04-07T19:19:07.508Z,32.95
2019-04-07T19:21:47.533Z,31.05
2019-04-07T19:24:35.676Z,29.20
2019-04-07T19:27:27.454Z,29.55
2019-04-07T19:29:55.351Z,30.55
2019-04-07T19:32:29.195Z,27.95
2019-04-07T19:35:08.883Z,31.77
2019-04-07T19:37:47.424Z,32.08
2019-04-07T19:40:27.005Z,25.88
2019-04-07T19:42:56.298Z,29.02
2019-04-07T19:45:30.696Z,29.82
2019-04-07T19:48:06.419Z,26.53
2019-04-07T19:50:55.004Z,32.67
2019-04-07T19:53:31.053Z,32.28
2019-04-07T19:55:59.566Z,34.50
2019-04-07T19:58:47.004Z,35.13
2019-04-07T20:01:29.009Z,31.37
2019-04-07T20:03:58.593Z,30.52
2019-04-07T20:06:29.737Z,39.75
2019-04-07T20:09:17.138Z,33.48
2019-04-07T20:12:05.199Z,33.08
2019-04-07T20:15:00.538Z,39.45
2019-04-07T20:17:43.056Z,37.40
2019-04-07T20:20:13.999Z,38.85
2019-04-07T20:22:44.326Z,42.03
2019-04-07T20:25:20.714Z,44.00
2019-04-07T20:27:57.505Z,41.55
2019-04-07T20:30:30.742Z,41.77
2019-04-07T20:33:00.957Z,42.38
2019-04-07T20:35:43.553Z,44.70
2019-04-07T20:38:14.770Z,48.28
2019-04-07T20:41:01.455Z,43.10
2019-04-07T20:43:38.500Z,45.67
2019-04-07T20:46:08.986Z,48.20
2019-04-07T20:48:41.996Z,46.80
2019-04-07T20:51:17.680Z,51.13
2019-04-07T20:53:59.824Z,52.60
2019-04-07T20:56:46.228Z,48.08
2019-04-07T20:59:19.336Z,51.48
2019-04-07T21:05:22.920Z,55.03
2019-04-07T21:08:00.758Z,49.20
2019-04-07T21:10:35.994Z,52.33
2019-04-07T21:13:08.763Z,53.65
2019-04-07T21:15:53.120Z,52.33
2019-04-07T21:18:26.821Z,54.88
2019-04-07T21:20:58.872Z,55.98
2019-04-07T21:23:29.301Z,48.17
2019-04-07T21:26:11.904Z,55.83
2019-04-07T21:28:42.729Z,59.35
2019-04-07T21:31:28.220Z,55.73
2019-04-07T21:34:09.377Z,59.55
2019-04-07T21:36:42.654Z,62.48
2019-04-07T21:39:16.262Z,61.70
2019-04-07T21:42:01.822Z,60.95
2019-04-07T21:44:35.814Z,56.30
2019-04-07T21:47:18.477Z,58.52
2019-04-07T21:49:49.235Z,61.63
2019-04-07T21:52:23.363Z,60.70
2019-04-07T21:55:12.041Z,61.10
2019-04-07T21:57:46.701Z,62.08
2019-04-07T22:00:17.077Z,61.08
2019-04-07T22:02:48.306Z,66.62
2019-04-07T22:05:35.001Z,65.10
2019-04-07T22:08:16.989Z,55.67
2019-04-07T22:10:42.752Z,67.85
2019-04-07T22:13:12.247Z,62.90
2019-04-07T22:15:49.390Z,65.75
2019-04-07T22:18:13.704Z,61.98
2019-04-07T22:20:43.219Z,66.62
2019-04-07T22:23:12.566Z,67.15
2019-04-07T22:25:51.657Z,65.75
2019-04-07T22:28:20.833Z,63.78
2019-04-07T22:30:51.341Z,67.27
2019-04-07T22:33:23.003Z,72.90
2019-04-07T22:35:51.249Z,74.00
2019-04-07T22:38:22.930Z,65.87
2019-04-07T22:40:52.221Z,68.52
2019-04-07T22:43:21.302Z,66.85
2019-04-07T22:45:59.162Z,68.00
2019-04-07T22:48:23.567Z,69.67
2019-04-07T22:50:51.748Z,66.17
2019-04-07T22:53:23.237Z,72.62
2019-04-07T22:55:51.092Z,68.22
2019-04-07T22:58:20.171Z,65.78
2019-04-07T23:00:49.017Z,67.53
2019-04-07T23:03:19.656Z,71.12
2019-04-07T23:05:49.142Z,67.58
2019-04-07T23:08:18.860Z,66.77
2019-04-07T23:10:47.938Z,62.75
2019-04-07T23:13:16.669Z,78.90
2019-04-07T23:15:47.047Z,67.90
2019-04-07T23:18:15.956Z,69.37
2019-04-07T23:20:44.753Z,68.20
2019-04-07T23:23:14.427Z,75.05
2019-04-07T23:25:44.050Z,72.03
2019-04-07T23:28:14.580Z,70.67
2019-04-07T23:30:43.266Z,70.57
2019-04-07T23:33:12.493Z,73.22
2019-04-07T23:35:41.363Z,69.03
2019-04-07T23:38:13.357Z,70.22
2019-04-07T23:40:42.143Z,71.17
2019-04-07T23:43:11.141Z,79.62
2019-04-07T23:45:39.954Z,76.55
2019-04-07T23:48:08.720Z,76.17
2019-04-07T23:50:37.413Z,76.55
2019-04-07T23:53:42.875Z,77.10
2019-04-07T23:56:12.150Z,80.38
2019-04-07T23:58:41.919Z,80.65
